sensor_id;sensor_type;location;lat;lon;timestamp;P1;durP1;ratioP1;P2;durP2;ratioP2
5117;SDS011;2578;51.622;7.046;2023-07-13T00:00:42;6.90;;;6.40;;
5117;SDS011;2578;51.622;7.046;2023-07-13T00:03:07;6.60;;;6.10;;
5117;SDS011;2578;51.622;7.046;2023-07-13T00:05:33;6.60;;;6.10;;
5117;SDS011;2578;51.622;7.046;2023-07-13T00:07:59;7.10;;;6.50;;
5117;SDS011;2578;51.622;7.046;2023-07-13T00:10:25;7.20;;;6.60;;
5117;SDS011;2578;51.622;7.046;2023-07-13T00:12:51;7.73;;;7.13;;
5117;SDS011;2578;51.622;7.046;2023-07-13T00:15:20;8.03;;;7.43;;
5117;SDS011;2578;51.622;7.046;2023-07-13T00:17:48;8.20;;;7.60;;
5117;SDS011;2578;51.622;7.046;2023-07-13T00:20:15;7.97;;;7.37;;
5117;SDS011;2578;51.622;7.046;2023-07-13T00:22:40;8.70;;;8.10;;
5117;SDS011;2578;51.622;7.046;2023-07-13T00:25:06;9.20;;;8.60;;
5117;SDS011;2578;51.622;7.046;2023-07-13T00:27:33;9.40;;;8.80;;
5117;SDS011;2578;51.622;7.046;2023-07-13T00:29:59;10.60;;;9.80;;
5117;SDS011;2578;51.622;7.046;2023-07-13T00:32:25;10.80;;;10.10;;
5117;SDS011;2578;51.622;7.046;2023-07-13T00:34:51;11.53;;;10.73;;
5117;SDS011;2578;51.622;7.046;2023-07-13T00:37:17;11.27;;;10.57;;
5117;SDS011;2578;51.622;7.046;2023-07-13T00:39:43;11.20;;;10.50;;
5117;SDS011;2578;51.622;7.046;2023-07-13T00:42:09;11.33;;;10.60;;
5117;SDS011;2578;51.622;7.046;2023-07-13T00:44:36;11.60;;;10.80;;
5117;SDS011;2578;51.622;7.046;2023-07-13T00:47:02;12.50;;;11.30;;
5117;SDS011;2578;51.622;7.046;2023-07-13T00:49:29;11.90;;;11.10;;
5117;SDS011;2578;51.622;7.046;2023-07-13T00:51:58;11.90;;;11.10;;
5117;SDS011;2578;51.622;7.046;2023-07-13T00:54:31;11.70;;;10.90;;
5117;SDS011;2578;51.622;7.046;2023-07-13T00:57:03;11.73;;;10.93;;
5117;SDS011;2578;51.622;7.046;2023-07-13T00:59:33;11.90;;;11.10;;
5117;SDS011;2578;51.622;7.046;2023-07-13T01:02:00;12.00;;;11.20;;
5117;SDS011;2578;51.622;7.046;2023-07-13T01:04:26;11.60;;;10.80;;
5117;SDS011;2578;51.622;7.046;2023-07-13T01:06:52;11.27;;;10.57;;
5117;SDS011;2578;51.622;7.046;2023-07-13T01:09:19;11.27;;;10.57;;
5117;SDS011;2578;51.622;7.046;2023-07-13T01:11:46;11.10;;;10.30;;
5117;SDS011;2578;51.622;7.046;2023-07-13T01:14:12;10.80;;;10.10;;
5117;SDS011;2578;51.622;7.046;2023-07-13T01:16:38;10.87;;;10.17;;
5117;SDS011;2578;51.622;7.046;2023-07-13T01:19:10;10.67;;;9.97;;
5117;SDS011;2578;51.622;7.046;2023-07-13T01:21:51;10.10;;;9.40;;
5117;SDS011;2578;51.622;7.046;2023-07-13T01:24:17;10.67;;;9.97;;
5117;SDS011;2578;51.622;7.046;2023-07-13T01:26:43;12.40;;;10.53;;
5117;SDS011;2578;51.622;7.046;2023-07-13T01:29:09;10.20;;;9.50;;
5117;SDS011;2578;51.622;7.046;2023-07-13T01:31:34;10.30;;;9.60;;
5117;SDS011;2578;51.622;7.046;2023-07-13T01:34:00;10.50;;;9.70;;
5117;SDS011;2578;51.622;7.046;2023-07-13T01:36:26;10.70;;;9.80;;
5117;SDS011;2578;51.622;7.046;2023-07-13T01:38:51;9.80;;;9.10;;
5117;SDS011;2578;51.622;7.046;2023-07-13T01:41:17;9.60;;;9.00;;
5117;SDS011;2578;51.622;7.046;2023-07-13T01:43:42;9.73;;;9.03;;
5117;SDS011;2578;51.622;7.046;2023-07-13T01:46:08;12.30;;;9.23;;
5117;SDS011;2578;51.622;7.046;2023-07-13T01:48:34;9.00;;;8.40;;
5117;SDS011;2578;51.622;7.046;2023-07-13T01:50:59;8.70;;;8.10;;
5117;SDS011;2578;51.622;7.046;2023-07-13T01:53:25;8.90;;;8.30;;
5117;SDS011;2578;51.622;7.046;2023-07-13T01:55:50;8.70;;;8.10;;
5117;SDS011;2578;51.622;7.046;2023-07-13T01:58:16;8.60;;;8.00;;
5117;SDS011;2578;51.622;7.046;2023-07-13T02:00:42;9.20;;;8.50;;
5117;SDS011;2578;51.622;7.046;2023-07-13T02:03:07;8.67;;;8.07;;
5117;SDS011;2578;51.622;7.046;2023-07-13T02:05:33;9.33;;;8.60;;
5117;SDS011;2578;51.622;7.046;2023-07-13T02:07:58;9.23;;;8.63;;
5117;SDS011;2578;51.622;7.046;2023-07-13T02:10:24;9.07;;;8.47;;
5117;SDS011;2578;51.622;7.046;2023-07-13T02:12:50;9.20;;;8.60;;
5117;SDS011;2578;51.622;7.046;2023-07-13T02:15:16;9.40;;;8.70;;
5117;SDS011;2578;51.622;7.046;2023-07-13T02:17:42;10.37;;;9.37;;
5117;SDS011;2578;51.622;7.046;2023-07-13T02:20:08;9.00;;;8.40;;
5117;SDS011;2578;51.622;7.046;2023-07-13T02:22:34;9.87;;;9.10;;
5117;SDS011;2578;51.622;7.046;2023-07-13T02:25:00;8.80;;;8.20;;
5117;SDS011;2578;51.622;7.046;2023-07-13T02:27:26;9.10;;;8.50;;
5117;SDS011;2578;51.622;7.046;2023-07-13T02:29:52;9.40;;;8.80;;
5117;SDS011;2578;51.622;7.046;2023-07-13T02:32:18;9.20;;;8.60;;
5117;SDS011;2578;51.622;7.046;2023-07-13T02:34:44;9.30;;;8.60;;
5117;SDS011;2578;51.622;7.046;2023-07-13T02:37:09;8.47;;;7.87;;
5117;SDS011;2578;51.622;7.046;2023-07-13T02:39:35;8.60;;;8.00;;
5117;SDS011;2578;51.622;7.046;2023-07-13T02:42:01;10.53;;;9.53;;
5117;SDS011;2578;51.622;7.046;2023-07-13T02:44:26;8.90;;;8.30;;
5117;SDS011;2578;51.622;7.046;2023-07-13T02:46:52;8.87;;;8.27;;
5117;SDS011;2578;51.622;7.046;2023-07-13T02:49:18;9.07;;;8.27;;
5117;SDS011;2578;51.622;7.046;2023-07-13T02:51:43;9.40;;;8.80;;
5117;SDS011;2578;51.622;7.046;2023-07-13T02:54:09;8.63;;;8.03;;
5117;SDS011;2578;51.622;7.046;2023-07-13T02:56:36;8.73;;;7.80;;
5117;SDS011;2578;51.622;7.046;2023-07-13T02:59:03;8.10;;;7.50;;
5117;SDS011;2578;51.622;7.046;2023-07-13T03:01:29;11.30;;;10.00;;
5117;SDS011;2578;51.622;7.046;2023-07-13T03:03:55;7.80;;;7.20;;
5117;SDS011;2578;51.622;7.046;2023-07-13T03:06:20;7.30;;;6.70;;
5117;SDS011;2578;51.622;7.046;2023-07-13T03:08:47;7.50;;;6.90;;
5117;SDS011;2578;51.622;7.046;2023-07-13T03:11:15;6.80;;;6.30;;
5117;SDS011;2578;51.622;7.046;2023-07-13T03:13:45;7.30;;;6.80;;
5117;SDS011;2578;51.622;7.046;2023-07-13T03:16:11;6.57;;;6.07;;
5117;SDS011;2578;51.622;7.046;2023-07-13T03:18:37;6.80;;;6.30;;
5117;SDS011;2578;51.622;7.046;2023-07-13T03:21:03;6.83;;;6.33;;
5117;SDS011;2578;51.622;7.046;2023-07-13T03:23:30;6.67;;;6.17;;
5117;SDS011;2578;51.622;7.046;2023-07-13T03:26:06;6.60;;;6.10;;
5117;SDS011;2578;51.622;7.046;2023-07-13T03:28:35;6.50;;;6.00;;
5117;SDS011;2578;51.622;7.046;2023-07-13T03:31:20;6.70;;;6.20;;
5117;SDS011;2578;51.622;7.046;2023-07-13T03:33:49;6.00;;;5.50;;
5117;SDS011;2578;51.622;7.046;2023-07-13T03:36:17;7.07;;;6.37;;
5117;SDS011;2578;51.622;7.046;2023-07-13T03:38:51;7.00;;;6.30;;
5117;SDS011;2578;51.622;7.046;2023-07-13T03:41:20;6.43;;;5.93;;
5117;SDS011;2578;51.622;7.046;2023-07-13T03:43:47;5.90;;;5.40;;
5117;SDS011;2578;51.622;7.046;2023-07-13T03:46:13;17.20;;;5.80;;
5117;SDS011;2578;51.622;7.046;2023-07-13T03:48:40;6.20;;;5.70;;
5117;SDS011;2578;51.622;7.046;2023-07-13T03:51:08;6.47;;;5.97;;
5117;SDS011;2578;51.622;7.046;2023-07-13T03:53:37;9.10;;;5.43;;
5117;SDS011;2578;51.622;7.046;2023-07-13T03:56:04;5.90;;;5.40;;
5117;SDS011;2578;51.622;7.046;2023-07-13T03:58:33;6.30;;;5.80;;
5117;SDS011;2578;51.622;7.046;2023-07-13T04:01:01;6.10;;;5.60;;
5117;SDS011;2578;51.622;7.046;2023-07-13T04:03:28;6.00;;;5.50;;
5117;SDS011;2578;51.622;7.046;2023-07-13T04:05:57;6.90;;;6.30;;
5117;SDS011;2578;51.622;7.046;2023-07-13T04:08:25;8.73;;;7.93;;
5117;SDS011;2578;51.622;7.046;2023-07-13T04:10:52;7.67;;;7.07;;
5117;SDS011;2578;51.622;7.046;2023-07-13T04:13:17;8.73;;;7.40;;
5117;SDS011;2578;51.622;7.046;2023-07-13T04:15:43;8.03;;;7.43;;
5117;SDS011;2578;51.622;7.046;2023-07-13T04:18:08;7.70;;;7.10;;
5117;SDS011;2578;51.622;7.046;2023-07-13T04:20:34;8.33;;;7.40;;
5117;SDS011;2578;51.622;7.046;2023-07-13T04:23:00;8.80;;;7.40;;
5117;SDS011;2578;51.622;7.046;2023-07-13T04:25:26;7.30;;;6.80;;
5117;SDS011;2578;51.622;7.046;2023-07-13T04:27:52;8.13;;;7.43;;
5117;SDS011;2578;51.622;7.046;2023-07-13T04:30:18;7.87;;;7.07;;
5117;SDS011;2578;51.622;7.046;2023-07-13T04:32:43;8.37;;;7.67;;
5117;SDS011;2578;51.622;7.046;2023-07-13T04:35:09;7.60;;;7.03;;
5117;SDS011;2578;51.622;7.046;2023-07-13T04:37:35;8.30;;;7.70;;
5117;SDS011;2578;51.622;7.046;2023-07-13T04:40:00;9.70;;;8.67;;
5117;SDS011;2578;51.622;7.046;2023-07-13T04:42:26;11.77;;;8.00;;
5117;SDS011;2578;51.622;7.046;2023-07-13T04:44:52;9.53;;;8.83;;
5117;SDS011;2578;51.622;7.046;2023-07-13T04:47:18;9.03;;;8.33;;
5117;SDS011;2578;51.622;7.046;2023-07-13T04:49:44;8.30;;;7.70;;
5117;SDS011;2578;51.622;7.046;2023-07-13T04:52:10;8.20;;;7.60;;
5117;SDS011;2578;51.622;7.046;2023-07-13T04:54:36;8.20;;;7.50;;
5117;SDS011;2578;51.622;7.046;2023-07-13T04:57:03;7.90;;;7.30;;
5117;SDS011;2578;51.622;7.046;2023-07-13T04:59:31;8.60;;;8.00;;
5117;SDS011;2578;51.622;7.046;2023-07-13T05:01:57;8.70;;;7.83;;
5117;SDS011;2578;51.622;7.046;2023-07-13T05:04:23;8.03;;;7.43;;
5117;SDS011;2578;51.622;7.046;2023-07-13T05:06:49;10.57;;;8.03;;
5117;SDS011;2578;51.622;7.046;2023-07-13T05:09:14;7.90;;;7.30;;
5117;SDS011;2578;51.622;7.046;2023-07-13T05:11:40;8.20;;;7.40;;
5117;SDS011;2578;51.622;7.046;2023-07-13T05:14:05;8.07;;;7.47;;
5117;SDS011;2578;51.622;7.046;2023-07-13T05:16:31;8.13;;;7.53;;
5117;SDS011;2578;51.622;7.046;2023-07-13T05:18:57;10.97;;;7.83;;
5117;SDS011;2578;51.622;7.046;2023-07-13T05:21:23;7.20;;;6.70;;
5117;SDS011;2578;51.622;7.046;2023-07-13T05:23:49;7.20;;;6.70;;
5117;SDS011;2578;51.622;7.046;2023-07-13T05:26:15;9.53;;;7.77;;
5117;SDS011;2578;51.622;7.046;2023-07-13T05:28:41;7.80;;;7.20;;
5117;SDS011;2578;51.622;7.046;2023-07-13T05:31:07;7.70;;;7.10;;
5117;SDS011;2578;51.622;7.046;2023-07-13T05:33:33;8.70;;;7.90;;
5117;SDS011;2578;51.622;7.046;2023-07-13T05:35:59;6.60;;;6.10;;
5117;SDS011;2578;51.622;7.046;2023-07-13T05:38:25;6.40;;;5.90;;
5117;SDS011;2578;51.622;7.046;2023-07-13T05:40:53;6.93;;;6.33;;
5117;SDS011;2578;51.622;7.046;2023-07-13T05:43:20;7.27;;;6.67;;
5117;SDS011;2578;51.622;7.046;2023-07-13T05:45:45;7.10;;;6.50;;
5117;SDS011;2578;51.622;7.046;2023-07-13T05:48:11;7.47;;;6.77;;
5117;SDS011;2578;51.622;7.046;2023-07-13T05:50:37;6.60;;;6.10;;
5117;SDS011;2578;51.622;7.046;2023-07-13T05:53:02;8.20;;;7.47;;
5117;SDS011;2578;51.622;7.046;2023-07-13T05:55:28;14.93;;;7.93;;
5117;SDS011;2578;51.622;7.046;2023-07-13T06:00:22;8.03;;;7.33;;
5117;SDS011;2578;51.622;7.046;2023-07-13T06:02:47;9.27;;;8.37;;
5117;SDS011;2578;51.622;7.046;2023-07-13T06:05:13;6.30;;;5.80;;
5117;SDS011;2578;51.622;7.046;2023-07-13T06:07:39;8.93;;;8.13;;
5117;SDS011;2578;51.622;7.046;2023-07-13T06:10:04;11.10;;;8.93;;
5117;SDS011;2578;51.622;7.046;2023-07-13T06:12:30;9.73;;;7.80;;
5117;SDS011;2578;51.622;7.046;2023-07-13T06:14:56;10.87;;;8.23;;
5117;SDS011;2578;51.622;7.046;2023-07-13T06:17:21;6.30;;;5.80;;
5117;SDS011;2578;51.622;7.046;2023-07-13T06:19:47;6.83;;;6.33;;
5117;SDS011;2578;51.622;7.046;2023-07-13T06:22:13;5.90;;;5.40;;
5117;SDS011;2578;51.622;7.046;2023-07-13T06:24:38;7.97;;;6.83;;
5117;SDS011;2578;51.622;7.046;2023-07-13T06:27:04;7.40;;;6.80;;
5117;SDS011;2578;51.622;7.046;2023-07-13T06:29:30;10.10;;;8.97;;
5117;SDS011;2578;51.622;7.046;2023-07-13T06:31:56;16.70;;;10.10;;
5117;SDS011;2578;51.622;7.046;2023-07-13T06:34:22;7.50;;;6.90;;
5117;SDS011;2578;51.622;7.046;2023-07-13T06:36:47;7.00;;;6.50;;
5117;SDS011;2578;51.622;7.046;2023-07-13T06:39:13;9.60;;;8.70;;
5117;SDS011;2578;51.622;7.046;2023-07-13T06:41:39;9.93;;;9.00;;
5117;SDS011;2578;51.622;7.046;2023-07-13T06:44:04;7.30;;;6.70;;
5117;SDS011;2578;51.622;7.046;2023-07-13T06:46:31;7.90;;;7.30;;
5117;SDS011;2578;51.622;7.046;2023-07-13T06:48:57;10.43;;;7.73;;
5117;SDS011;2578;51.622;7.046;2023-07-13T06:51:22;8.53;;;7.73;;
5117;SDS011;2578;51.622;7.046;2023-07-13T06:53:48;7.73;;;7.13;;
5117;SDS011;2578;51.622;7.046;2023-07-13T06:56:15;10.40;;;9.40;;
5117;SDS011;2578;51.622;7.046;2023-07-13T06:58:40;9.00;;;8.30;;
5117;SDS011;2578;51.622;7.046;2023-07-13T07:01:06;9.00;;;8.20;;
5117;SDS011;2578;51.622;7.046;2023-07-13T07:03:31;10.13;;;9.20;;
5117;SDS011;2578;51.622;7.046;2023-07-13T07:06:39;17.53;;;9.57;;
5117;SDS011;2578;51.622;7.046;2023-07-13T07:08:49;11.43;;;10.03;;
5117;SDS011;2578;51.622;7.046;2023-07-13T07:11:20;7.80;;;7.20;;
5117;SDS011;2578;51.622;7.046;2023-07-13T07:13:48;10.50;;;9.60;;
5117;SDS011;2578;51.622;7.046;2023-07-13T07:16:13;12.50;;;10.30;;
5117;SDS011;2578;51.622;7.046;2023-07-13T07:18:39;11.70;;;10.60;;
5117;SDS011;2578;51.622;7.046;2023-07-13T07:21:05;14.10;;;12.60;;
5117;SDS011;2578;51.622;7.046;2023-07-13T07:23:31;10.23;;;9.50;;
5117;SDS011;2578;51.622;7.046;2023-07-13T07:25:56;15.93;;;14.10;;
5117;SDS011;2578;51.622;7.046;2023-07-13T07:28:22;21.33;;;16.50;;
5117;SDS011;2578;51.622;7.046;2023-07-13T07:30:48;14.30;;;12.90;;
5117;SDS011;2578;51.622;7.046;2023-07-13T07:33:16;16.40;;;14.80;;
5117;SDS011;2578;51.622;7.046;2023-07-13T07:35:42;13.47;;;12.47;;
5117;SDS011;2578;51.622;7.046;2023-07-13T07:38:08;19.10;;;16.37;;
5117;SDS011;2578;51.622;7.046;2023-07-13T07:40:40;12.20;;;11.40;;
5117;SDS011;2578;51.622;7.046;2023-07-13T07:43:30;13.23;;;12.33;;
5117;SDS011;2578;51.622;7.046;2023-07-13T07:45:57;13.10;;;12.10;;
5117;SDS011;2578;51.622;7.046;2023-07-13T07:48:23;11.57;;;10.77;;
5117;SDS011;2578;51.622;7.046;2023-07-13T07:50:49;15.20;;;13.90;;
5117;SDS011;2578;51.622;7.046;2023-07-13T07:53:20;15.37;;;14.07;;
5117;SDS011;2578;51.622;7.046;2023-07-13T07:55:46;13.70;;;12.60;;
5117;SDS011;2578;51.622;7.046;2023-07-13T07:58:12;16.40;;;14.70;;
5117;SDS011;2578;51.622;7.046;2023-07-13T08:00:38;27.53;;;13.87;;
5117;SDS011;2578;51.622;7.046;2023-07-13T08:03:07;18.33;;;16.13;;
5117;SDS011;2578;51.622;7.046;2023-07-13T08:05:36;14.13;;;13.10;;
5117;SDS011;2578;51.622;7.046;2023-07-13T08:08:04;21.83;;;19.47;;
5117;SDS011;2578;51.622;7.046;2023-07-13T08:10:34;16.50;;;14.87;;
5117;SDS011;2578;51.622;7.046;2023-07-13T08:13:02;16.00;;;14.53;;
5117;SDS011;2578;51.622;7.046;2023-07-13T08:15:28;15.50;;;14.40;;
5117;SDS011;2578;51.622;7.046;2023-07-13T08:17:54;15.07;;;13.97;;
5117;SDS011;2578;51.622;7.046;2023-07-13T08:20:20;14.07;;;13.07;;
5117;SDS011;2578;51.622;7.046;2023-07-13T08:22:46;16.83;;;15.23;;
5117;SDS011;2578;51.622;7.046;2023-07-13T08:25:11;15.13;;;14.10;;
5117;SDS011;2578;51.622;7.046;2023-07-13T08:27:44;15.33;;;14.23;;
5117;SDS011;2578;51.622;7.046;2023-07-13T08:30:13;20.63;;;18.63;;
5117;SDS011;2578;51.622;7.046;2023-07-13T08:32:42;15.60;;;14.50;;
5117;SDS011;2578;51.622;7.046;2023-07-13T08:35:10;17.40;;;15.90;;
5117;SDS011;2578;51.622;7.046;2023-07-13T08:37:44;15.90;;;14.73;;
5117;SDS011;2578;51.622;7.046;2023-07-13T08:40:10;15.23;;;14.03;;
5117;SDS011;2578;51.622;7.046;2023-07-13T08:42:56;18.10;;;16.90;;
5117;SDS011;2578;51.622;7.046;2023-07-13T08:45:25;20.93;;;19.37;;
5117;SDS011;2578;51.622;7.046;2023-07-13T08:48:02;19.60;;;18.30;;
5117;SDS011;2578;51.622;7.046;2023-07-13T08:50:34;19.53;;;18.23;;
5117;SDS011;2578;51.622;7.046;2023-07-13T08:53:12;20.90;;;19.47;;
5117;SDS011;2578;51.622;7.046;2023-07-13T08:55:41;27.43;;;22.43;;
5117;SDS011;2578;51.622;7.046;2023-07-13T08:58:11;19.10;;;17.80;;
5117;SDS011;2578;51.622;7.046;2023-07-13T09:03:12;19.67;;;18.27;;
5117;SDS011;2578;51.622;7.046;2023-07-13T09:05:49;18.97;;;17.77;;
5117;SDS011;2578;51.622;7.046;2023-07-13T09:11:22;19.57;;;17.97;;
5117;SDS011;2578;51.622;7.046;2023-07-13T09:16:49;23.37;;;21.13;;
5117;SDS011;2578;51.622;7.046;2023-07-13T09:19:24;17.17;;;16.07;;
5117;SDS011;2578;51.622;7.046;2023-07-13T09:21:58;23.30;;;21.30;;
5117;SDS011;2578;51.622;7.046;2023-07-13T09:24:48;20.50;;;18.83;;
5117;SDS011;2578;51.622;7.046;2023-07-13T09:27:24;18.20;;;17.00;;
5117;SDS011;2578;51.622;7.046;2023-07-13T09:29:58;22.67;;;20.97;;
5117;SDS011;2578;51.622;7.046;2023-07-13T09:32:39;20.43;;;19.03;;
5117;SDS011;2578;51.622;7.046;2023-07-13T09:35:11;20.73;;;18.63;;
5117;SDS011;2578;51.622;7.046;2023-07-13T09:37:40;20.80;;;19.10;;
5117;SDS011;2578;51.622;7.046;2023-07-13T09:40:11;19.17;;;17.77;;
5117;SDS011;2578;51.622;7.046;2023-07-13T09:42:51;19.07;;;17.83;;
5117;SDS011;2578;51.622;7.046;2023-07-13T09:45:26;22.70;;;20.47;;
5117;SDS011;2578;51.622;7.046;2023-07-13T09:48:10;24.00;;;22.30;;
5117;SDS011;2578;51.622;7.046;2023-07-13T09:50:38;21.20;;;19.13;;
5117;SDS011;2578;51.622;7.046;2023-07-13T09:53:09;21.40;;;19.73;;
5117;SDS011;2578;51.622;7.046;2023-07-13T09:55:40;22.17;;;20.27;;
5117;SDS011;2578;51.622;7.046;2023-07-13T10:00:53;22.73;;;20.63;;
5117;SDS011;2578;51.622;7.046;2023-07-13T10:03:30;24.33;;;22.27;;
5117;SDS011;2578;51.622;7.046;2023-07-13T10:06:14;21.30;;;19.47;;
5117;SDS011;2578;51.622;7.046;2023-07-13T10:08:47;20.50;;;19.10;;
5117;SDS011;2578;51.622;7.046;2023-07-13T10:11:21;21.37;;;19.87;;
5117;SDS011;2578;51.622;7.046;2023-07-13T10:13:58;20.33;;;18.83;;
5117;SDS011;2578;51.622;7.046;2023-07-13T10:16:28;20.83;;;18.77;;
5117;SDS011;2578;51.622;7.046;2023-07-13T10:18:59;18.33;;;17.07;;
5117;SDS011;2578;51.622;7.046;2023-07-13T10:21:53;20.70;;;19.10;;
5117;SDS011;2578;51.622;7.046;2023-07-13T10:24:25;24.23;;;22.00;;
5117;SDS011;2578;51.622;7.046;2023-07-13T10:29:20;23.40;;;21.10;;
5117;SDS011;2578;51.622;7.046;2023-07-13T10:31:49;23.30;;;21.50;;
5117;SDS011;2578;51.622;7.046;2023-07-13T10:34:16;23.00;;;21.40;;
5117;SDS011;2578;51.622;7.046;2023-07-13T10:36:46;25.17;;;23.17;;
5117;SDS011;2578;51.622;7.046;2023-07-13T10:39:17;23.77;;;22.07;;
5117;SDS011;2578;51.622;7.046;2023-07-13T10:41:46;23.40;;;21.70;;
5117;SDS011;2578;51.622;7.046;2023-07-13T10:44:34;23.97;;;22.07;;
5117;SDS011;2578;51.622;7.046;2023-07-13T10:47:05;25.20;;;23.30;;
5117;SDS011;2578;51.622;7.046;2023-07-13T10:49:33;26.63;;;24.23;;
5117;SDS011;2578;51.622;7.046;2023-07-13T10:52:01;26.70;;;24.60;;
5117;SDS011;2578;51.622;7.046;2023-07-13T10:54:31;23.30;;;21.60;;
5117;SDS011;2578;51.622;7.046;2023-07-13T10:57:17;24.73;;;22.60;;
5117;SDS011;2578;51.622;7.046;2023-07-13T10:59:46;23.67;;;21.97;;
5117;SDS011;2578;51.622;7.046;2023-07-13T11:02:26;23.90;;;21.90;;
5117;SDS011;2578;51.622;7.046;2023-07-13T11:04:54;23.00;;;21.20;;
5117;SDS011;2578;51.622;7.046;2023-07-13T11:07:29;22.97;;;21.07;;
5117;SDS011;2578;51.622;7.046;2023-07-13T11:13:36;22.57;;;20.97;;
5117;SDS011;2578;51.622;7.046;2023-07-13T11:18:44;22.60;;;20.77;;
5117;SDS011;2578;51.622;7.046;2023-07-13T11:21:31;23.13;;;21.10;;
5117;SDS011;2578;51.622;7.046;2023-07-13T11:31:41;19.30;;;17.90;;
5117;SDS011;2578;51.622;7.046;2023-07-13T11:34:12;19.63;;;18.23;;
5117;SDS011;2578;51.622;7.046;2023-07-13T11:36:46;21.00;;;19.20;;
5117;SDS011;2578;51.622;7.046;2023-07-13T11:39:20;20.10;;;18.13;;
5117;SDS011;2578;51.622;7.046;2023-07-13T11:41:54;20.43;;;18.93;;
5117;SDS011;2578;51.622;7.046;2023-07-13T11:44:23;22.60;;;20.17;;
5117;SDS011;2578;51.622;7.046;2023-07-13T11:46:53;20.40;;;18.90;;
5117;SDS011;2578;51.622;7.046;2023-07-13T11:49:21;20.63;;;19.13;;
5117;SDS011;2578;51.622;7.046;2023-07-13T11:51:48;24.77;;;21.60;;
5117;SDS011;2578;51.622;7.046;2023-07-13T11:54:22;23.03;;;21.23;;
5117;SDS011;2578;51.622;7.046;2023-07-13T11:57:01;23.17;;;21.37;;
5117;SDS011;2578;51.622;7.046;2023-07-13T11:59:31;23.20;;;21.50;;
5117;SDS011;2578;51.622;7.046;2023-07-13T12:01:58;24.07;;;22.17;;
5117;SDS011;2578;51.622;7.046;2023-07-13T12:04:31;24.30;;;22.30;;
5117;SDS011;2578;51.622;7.046;2023-07-13T12:07:06;23.30;;;21.50;;
5117;SDS011;2578;51.622;7.046;2023-07-13T12:09:39;23.90;;;21.90;;
5117;SDS011;2578;51.622;7.046;2023-07-13T12:12:10;23.20;;;21.40;;
5117;SDS011;2578;51.622;7.046;2023-07-13T12:14:40;23.10;;;21.30;;
5117;SDS011;2578;51.622;7.046;2023-07-13T12:17:16;22.80;;;21.00;;
5117;SDS011;2578;51.622;7.046;2023-07-13T12:19:45;23.93;;;21.83;;
5117;SDS011;2578;51.622;7.046;2023-07-13T12:22:13;23.40;;;21.60;;
5117;SDS011;2578;51.622;7.046;2023-07-13T12:24:41;23.80;;;22.00;;
5117;SDS011;2578;51.622;7.046;2023-07-13T12:27:42;24.07;;;21.97;;
5117;SDS011;2578;51.622;7.046;2023-07-13T12:30:02;24.17;;;22.20;;
5117;SDS011;2578;51.622;7.046;2023-07-13T12:32:30;24.03;;;22.10;;
5117;SDS011;2578;51.622;7.046;2023-07-13T12:34:57;25.27;;;23.27;;
5117;SDS011;2578;51.622;7.046;2023-07-13T12:37:46;25.73;;;23.77;;
5117;SDS011;2578;51.622;7.046;2023-07-13T12:40:21;25.03;;;23.10;;
5117;SDS011;2578;51.622;7.046;2023-07-13T12:42:54;25.47;;;23.47;;
5117;SDS011;2578;51.622;7.046;2023-07-13T12:45:24;23.60;;;21.70;;
5117;SDS011;2578;51.622;7.046;2023-07-13T12:47:54;23.43;;;21.53;;
5117;SDS011;2578;51.622;7.046;2023-07-13T12:50:29;23.50;;;21.70;;
5117;SDS011;2578;51.622;7.046;2023-07-13T12:53:04;24.03;;;22.23;;
5117;SDS011;2578;51.622;7.046;2023-07-13T12:55:45;23.90;;;22.10;;
5117;SDS011;2578;51.622;7.046;2023-07-13T12:58:18;23.60;;;21.80;;
5117;SDS011;2578;51.622;7.046;2023-07-13T13:01:02;24.83;;;22.60;;
5117;SDS011;2578;51.622;7.046;2023-07-13T13:06:29;18.47;;;16.97;;
5117;SDS011;2578;51.622;7.046;2023-07-13T13:08:57;15.80;;;14.50;;
5117;SDS011;2578;51.622;7.046;2023-07-13T13:11:27;29.07;;;25.97;;
5117;SDS011;2578;51.622;7.046;2023-07-13T13:13:55;25.67;;;23.63;;
5117;SDS011;2578;51.622;7.046;2023-07-13T13:16:26;27.40;;;25.23;;
5117;SDS011;2578;51.622;7.046;2023-07-13T13:18:57;28.93;;;26.33;;
5117;SDS011;2578;51.622;7.046;2023-07-13T13:24:34;24.87;;;22.67;;
5117;SDS011;2578;51.622;7.046;2023-07-13T13:27:20;24.33;;;21.80;;
5117;SDS011;2578;51.622;7.046;2023-07-13T13:29:48;21.50;;;19.80;;
5117;SDS011;2578;51.622;7.046;2023-07-13T13:32:16;23.47;;;21.47;;
5117;SDS011;2578;51.622;7.046;2023-07-13T13:34:43;21.57;;;19.87;;
5117;SDS011;2578;51.622;7.046;2023-07-13T13:37:29;21.30;;;19.50;;
5117;SDS011;2578;51.622;7.046;2023-07-13T13:39:56;20.67;;;18.87;;
5117;SDS011;2578;51.622;7.046;2023-07-13T13:42:22;23.70;;;21.80;;
5117;SDS011;2578;51.622;7.046;2023-07-13T13:44:49;24.50;;;22.30;;
5117;SDS011;2578;51.622;7.046;2023-07-13T13:47:26;25.10;;;23.10;;
5117;SDS011;2578;51.622;7.046;2023-07-13T13:49:57;23.53;;;21.73;;
5117;SDS011;2578;51.622;7.046;2023-07-13T13:52:23;24.70;;;22.70;;
5117;SDS011;2578;51.622;7.046;2023-07-13T13:54:51;26.20;;;23.90;;
5117;SDS011;2578;51.622;7.046;2023-07-13T13:57:22;24.57;;;22.43;;
5117;SDS011;2578;51.622;7.046;2023-07-13T13:59:50;25.70;;;23.50;;
5117;SDS011;2578;51.622;7.046;2023-07-13T14:02:39;24.80;;;22.80;;
5117;SDS011;2578;51.622;7.046;2023-07-13T14:05:27;23.57;;;21.77;;
5117;SDS011;2578;51.622;7.046;2023-07-13T14:07:53;22.80;;;21.10;;
5117;SDS011;2578;51.622;7.046;2023-07-13T14:10:20;22.60;;;20.90;;
5117;SDS011;2578;51.622;7.046;2023-07-13T14:12:47;20.90;;;19.40;;
5117;SDS011;2578;51.622;7.046;2023-07-13T14:15:26;20.10;;;18.70;;
5117;SDS011;2578;51.622;7.046;2023-07-13T14:17:53;19.53;;;18.23;;
5117;SDS011;2578;51.622;7.046;2023-07-13T14:20:21;22.43;;;20.83;;
5117;SDS011;2578;51.622;7.046;2023-07-13T14:22:49;22.37;;;20.70;;
5117;SDS011;2578;51.622;7.046;2023-07-13T14:25:15;25.13;;;23.13;;
5117;SDS011;2578;51.622;7.046;2023-07-13T14:27:42;23.73;;;21.83;;
5117;SDS011;2578;51.622;7.046;2023-07-13T14:30:14;25.20;;;23.20;;
5117;SDS011;2578;51.622;7.046;2023-07-13T14:32:41;24.37;;;22.30;;
5117;SDS011;2578;51.622;7.046;2023-07-13T14:35:10;24.00;;;22.10;;
5117;SDS011;2578;51.622;7.046;2023-07-13T14:37:37;23.40;;;21.60;;
5117;SDS011;2578;51.622;7.046;2023-07-13T14:40:11;24.43;;;22.53;;
5117;SDS011;2578;51.622;7.046;2023-07-13T14:42:51;25.37;;;23.30;;
5117;SDS011;2578;51.622;7.046;2023-07-13T14:45:17;25.97;;;23.77;;
5117;SDS011;2578;51.622;7.046;2023-07-13T14:47:45;24.93;;;22.93;;
5117;SDS011;2578;51.622;7.046;2023-07-13T14:50:16;25.10;;;23.10;;
5117;SDS011;2578;51.622;7.046;2023-07-13T14:53:01;23.20;;;21.40;;
5117;SDS011;2578;51.622;7.046;2023-07-13T14:55:26;21.90;;;20.30;;
5117;SDS011;2578;51.622;7.046;2023-07-13T14:57:52;21.50;;;20.00;;
5117;SDS011;2578;51.622;7.046;2023-07-13T15:00:19;23.73;;;21.93;;
5117;SDS011;2578;51.622;7.046;2023-07-13T15:02:55;29.50;;;26.60;;
5117;SDS011;2578;51.622;7.046;2023-07-13T15:05:26;30.87;;;27.77;;
5117;SDS011;2578;51.622;7.046;2023-07-13T15:07:56;22.13;;;20.33;;
5117;SDS011;2578;51.622;7.046;2023-07-13T15:10:24;18.70;;;17.10;;
5117;SDS011;2578;51.622;7.046;2023-07-13T15:12:53;17.37;;;16.27;;
5117;SDS011;2578;51.622;7.046;2023-07-13T15:15:23;14.80;;;13.90;;
5117;SDS011;2578;51.622;7.046;2023-07-13T15:17:48;16.67;;;15.57;;
5117;SDS011;2578;51.622;7.046;2023-07-13T15:20:31;18.33;;;17.13;;
5117;SDS011;2578;51.622;7.046;2023-07-13T15:23:00;18.30;;;17.10;;
5117;SDS011;2578;51.622;7.046;2023-07-13T15:25:27;17.20;;;16.10;;
5117;SDS011;2578;51.622;7.046;2023-07-13T15:27:55;15.70;;;14.70;;
5117;SDS011;2578;51.622;7.046;2023-07-13T15:30:22;16.90;;;15.80;;
5117;SDS011;2578;51.622;7.046;2023-07-13T15:32:50;16.83;;;15.73;;
5117;SDS011;2578;51.622;7.046;2023-07-13T15:35:21;16.40;;;15.40;;
5117;SDS011;2578;51.622;7.046;2023-07-13T15:37:53;16.93;;;15.90;;
5117;SDS011;2578;51.622;7.046;2023-07-13T15:40:19;16.80;;;15.80;;
5117;SDS011;2578;51.622;7.046;2023-07-13T15:42:48;16.60;;;15.60;;
5117;SDS011;2578;51.622;7.046;2023-07-13T15:45:21;15.67;;;14.47;;